Time;durP1;ratioP1;P1;durP2;ratioP2;P2;SDS_P1;SDS_P2;PMS_P1;PMS_P2;Temp;Humidity;BMP_temperature;BMP_pressure;BME280_temperature;BME280_humidity;BME280_pressure;Samples;Min_cycle;Max_cycle;Signal;HPM_P1;HPM_P2
2022/03/15 00:00:46;;;;;;;35.88;16.08;;;;;;;;;;4952493;29;20031;-60
2022/03/15 00:03:12;;;;;;;30.35;15.90;;;;;;;;;;4952354;29;20027;-60
2022/03/15 00:05:38;;;;;;;40.50;19.05;;;;;;;;;;4952286;29;20023;-60
2022/03/15 00:08:06;;;;;;;34.63;17.52;;;;;;;;;;4951989;29;20042;-60
2022/03/15 00:10:32;;;;;;;39.92;18.20;;;;;;;;;;4952432;29;20716;-61
2022/03/15 00:12:58;;;;;;;35.10;17.55;;;;;;;;;;4952569;29;20031;-61
2022/03/15 00:15:26;;;;;;;33.65;16.35;;;;;;;;;;4952220;29;20035;-60
2022/03/15 00:17:53;;;;;;;32.53;16.88;;;;;;;;;;4952233;29;20025;-61
2022/03/15 00:20:21;;;;;;;31.30;15.88;;;;;;;;;;4952371;29;20138;-61
2022/03/15 00:22:48;;;;;;;29.95;14.98;;;;;;;;;;4952040;29;20102;-60
2022/03/15 00:25:17;;;;;;;27.40;13.88;;;;;;;;;;4952354;29;20090;-61
2022/03/15 00:27:47;;;;;;;27.77;14.43;;;;;;;;;;4952278;29;20050;-62
2022/03/15 00:30:14;;;;;;;33.70;15.75;;;;;;;;;;4952003;29;20031;-60
2022/03/15 00:32:40;;;;;;;31.25;15.32;;;;;;;;;;4951749;29;20035;-61
2022/03/15 00:35:08;;;;;;;28.70;14.85;;;;;;;;;;4951879;29;20043;-60
2022/03/15 00:37:36;;;;;;;29.35;14.45;;;;;;;;;;4951895;29;20043;-60
2022/03/15 00:40:03;;;;;;;26.85;13.50;;;;;;;;;;4952025;29;20034;-63
2022/03/15 00:42:29;;;;;;;25.95;13.65;;;;;;;;;;4952346;29;20434;-62
2022/03/15 00:44:55;;;;;;;25.90;12.90;;;;;;;;;;4951901;29;20058;-61
2022/03/15 00:47:21;;;;;;;24.65;12.32;;;;;;;;;;4955061;28;20030;-61
2022/03/15 00:49:47;;;;;;;27.90;12.77;;;;;;;;;;4957928;29;20063;-60
2022/03/15 00:52:13;;;;;;;23.67;12.32;;;;;;;;;;4957517;29;20036;-61
2022/03/15 00:54:39;;;;;;;23.67;12.57;;;;;;;;;;4955589;29;20043;-60
2022/03/15 00:57:06;;;;;;;22.90;12.38;;;;;;;;;;4955641;29;20173;-59
2022/03/15 00:59:32;;;;;;;21.95;12.10;;;;;;;;;;4955515;29;20031;-60
2022/03/15 01:01:58;;;;;;;21.80;12.57;;;;;;;;;;4955344;29;20054;-60
2022/03/15 01:04:24;;;;;;;24.95;13.20;;;;;;;;;;4955554;29;20050;-62
2022/03/15 01:06:50;;;;;;;23.50;12.43;;;;;;;;;;4955997;29;20050;-61
2022/03/15 01:09:16;;;;;;;24.73;12.27;;;;;;;;;;4955115;29;20415;-61
2022/03/15 01:11:42;;;;;;;24.52;12.35;;;;;;;;;;4955546;29;20487;-62
2022/03/15 01:14:08;;;;;;;24.65;11.77;;;;;;;;;;4955198;29;20039;-60
2022/03/15 01:16:34;;;;;;;23.88;11.70;;;;;;;;;;4955391;29;20043;-61
2022/03/15 01:19:00;;;;;;;26.33;13.07;;;;;;;;;;4955341;29;20031;-62
2022/03/15 01:21:28;;;;;;;27.08;12.98;;;;;;;;;;4955412;29;20043;-60
2022/03/15 01:23:54;;;;;;;25.88;12.65;;;;;;;;;;4955239;29;20074;-60
2022/03/15 01:26:20;;;;;;;24.00;11.90;;;;;;;;;;4955465;29;20050;-60
2022/03/15 01:28:46;;;;;;;24.63;12.45;;;;;;;;;;4955307;29;20031;-60
2022/03/15 01:31:12;;;;;;;24.92;12.38;;;;;;;;;;4954984;29;20123;-60
2022/03/15 01:33:38;;;;;;;24.27;12.65;;;;;;;;;;4954878;29;20153;-62
2022/03/15 01:36:05;;;;;;;27.17;13.50;;;;;;;;;;4955141;29;20046;-60
2022/03/15 01:38:34;;;;;;;28.50;13.32;;;;;;;;;;4955180;29;20027;-61
2022/03/15 01:41:00;;;;;;;25.48;13.10;;;;;;;;;;4955000;29;20037;-62
2022/03/15 01:43:26;;;;;;;26.35;12.48;;;;;;;;;;4954886;29;20042;-62
2022/03/15 01:45:53;;;;;;;24.42;11.82;;;;;;;;;;4954826;28;20085;-60
2022/03/15 01:48:20;;;;;;;23.63;12.20;;;;;;;;;;4955144;29;20025;-60
2022/03/15 01:50:46;;;;;;;24.90;13.10;;;;;;;;;;4954659;29;20023;-60
2022/03/15 01:53:14;;;;;;;24.05;12.70;;;;;;;;;;4954635;29;20472;-60
2022/03/15 01:55:40;;;;;;;25.77;13.27;;;;;;;;;;4954759;29;20050;-61
2022/03/15 01:58:06;;;;;;;24.73;13.45;;;;;;;;;;4953953;28;20106;-62
2022/03/15 02:00:33;;;;;;;25.77;14.20;;;;;;;;;;4954667;29;20027;-62
2022/03/15 02:02:59;;;;;;;31.17;14.80;;;;;;;;;;4954371;29;20035;-62
2022/03/15 02:05:25;;;;;;;30.48;14.98;;;;;;;;;;4954264;29;20118;-63
2022/03/15 02:07:51;;;;;;;28.48;14.40;;;;;;;;;;4954384;28;20112;-61
2022/03/15 02:10:17;;;;;;;27.70;13.23;;;;;;;;;;4954433;29;20046;-62
2022/03/15 02:12:43;;;;;;;25.25;12.38;;;;;;;;;;4954570;29;20499;-62
2022/03/15 02:15:10;;;;;;;25.42;12.05;;;;;;;;;;4954437;29;20491;-63
2022/03/15 02:17:36;;;;;;;19.90;11.48;;;;;;;;;;4954419;29;20033;-63
2022/03/15 02:20:08;;;;;;;24.60;12.65;;;;;;;;;;4954248;29;20546;-62
2022/03/15 02:22:34;;;;;;;25.75;13.23;;;;;;;;;;4954732;29;20420;-61
2022/03/15 02:25:01;;;;;;;28.95;14.50;;;;;;;;;;4954068;29;20082;-60
2022/03/15 02:27:27;;;;;;;30.80;14.85;;;;;;;;;;4954221;29;20451;-61
2022/03/15 02:29:53;;;;;;;24.65;13.50;;;;;;;;;;4953882;29;20026;-61
2022/03/15 02:32:19;;;;;;;25.33;13.07;;;;;;;;;;4953992;29;20078;-60
2022/03/15 02:34:45;;;;;;;25.85;14.07;;;;;;;;;;4954010;29;20074;-60
2022/03/15 02:37:11;;;;;;;26.33;13.55;;;;;;;;;;4954165;29;20100;-61
2022/03/15 02:39:37;;;;;;;25.08;12.23;;;;;;;;;;4953956;29;20046;-60
2022/03/15 02:42:03;;;;;;;25.48;12.82;;;;;;;;;;4954059;29;20031;-61
2022/03/15 02:44:29;;;;;;;27.80;12.85;;;;;;;;;;4954110;29;20035;-61
2022/03/15 02:46:55;;;;;;;23.75;13.23;;;;;;;;;;4953510;29;20027;-59
2022/03/15 02:49:21;;;;;;;29.77;14.02;;;;;;;;;;4953768;29;20071;-63
2022/03/15 02:51:47;;;;;;;28.20;14.02;;;;;;;;;;4953890;29;20026;-61
2022/03/15 02:54:13;;;;;;;26.40;14.13;;;;;;;;;;4953722;29;20043;-63
2022/03/15 02:56:42;;;;;;;24.42;13.70;;;;;;;;;;4953874;29;20027;-63
2022/03/15 02:59:08;;;;;;;28.27;13.52;;;;;;;;;;4953772;29;20478;-64
2022/03/15 03:01:34;;;;;;;24.60;12.82;;;;;;;;;;4954611;29;20027;-64
2022/03/15 03:04:01;;;;;;;25.70;12.88;;;;;;;;;;4955427;29;20050;-60
2022/03/15 03:06:27;;;;;;;28.17;14.52;;;;;;;;;;4954397;29;20023;-63
2022/03/15 03:08:53;;;;;;;27.23;14.48;;;;;;;;;;4953315;28;20057;-61
2022/03/15 03:11:19;;;;;;;23.63;13.85;;;;;;;;;;4953358;29;20019;-60
2022/03/15 03:13:47;;;;;;;24.35;12.82;;;;;;;;;;4953168;29;20483;-61
2022/03/15 03:16:14;;;;;;;24.92;14.10;;;;;;;;;;4953486;29;20027;-61
2022/03/15 03:18:40;;;;;;;26.63;13.30;;;;;;;;;;4953046;29;20083;-60
2022/03/15 03:21:07;;;;;;;21.98;11.25;;;;;;;;;;4953204;29;20027;-61
2022/03/15 03:23:38;;;;;;;24.10;12.90;;;;;;;;;;4952893;29;20066;-61
2022/03/15 03:26:05;;;;;;;25.58;13.07;;;;;;;;;;4953161;29;20055;-61
2022/03/15 03:28:38;;;;;;;25.50;12.82;;;;;;;;;;4952922;29;20029;-61
2022/03/15 03:31:05;;;;;;;22.77;12.50;;;;;;;;;;4952970;29;20027;-61
2022/03/15 03:33:32;;;;;;;24.73;12.95;;;;;;;;;;4952320;29;20038;-60
2022/03/15 03:35:58;;;;;;;23.38;12.48;;;;;;;;;;4952501;29;20130;-61
2022/03/15 03:38:24;;;;;;;26.50;12.88;;;;;;;;;;4952378;28;20041;-63
2022/03/15 03:40:50;;;;;;;28.60;13.45;;;;;;;;;;4952722;29;20081;-62
2022/03/15 03:43:17;;;;;;;25.48;12.88;;;;;;;;;;4952745;29;20023;-62
2022/03/15 03:45:43;;;;;;;31.13;14.27;;;;;;;;;;4952535;29;20054;-61
2022/03/15 03:48:09;;;;;;;26.20;13.13;;;;;;;;;;4952384;28;20057;-61
2022/03/15 03:50:36;;;;;;;25.98;13.30;;;;;;;;;;4952883;29;20038;-60
2022/03/15 03:53:03;;;;;;;26.85;12.57;;;;;;;;;;4952424;29;20023;-61
2022/03/15 03:55:29;;;;;;;23.52;12.75;;;;;;;;;;4952432;29;20074;-60
2022/03/15 03:57:55;;;;;;;20.35;11.68;;;;;;;;;;4952707;29;20027;-60
2022/03/15 04:00:21;;;;;;;24.98;12.60;;;;;;;;;;4952374;29;20487;-61
2022/03/15 04:02:47;;;;;;;23.42;12.60;;;;;;;;;;4952344;29;20395;-63
2022/03/15 04:05:15;;;;;;;22.23;11.90;;;;;;;;;;4952172;29;20038;-61
2022/03/15 04:07:41;;;;;;;25.27;12.50;;;;;;;;;;4952228;29;20510;-62
2022/03/15 04:10:08;;;;;;;22.92;12.02;;;;;;;;;;4952055;29;20496;-61
2022/03/15 04:12:34;;;;;;;25.92;13.20;;;;;;;;;;4952486;29;20452;-60
2022/03/15 04:15:01;;;;;;;24.02;12.55;;;;;;;;;;4952323;29;20130;-63
2022/03/15 04:17:27;;;;;;;24.80;12.48;;;;;;;;;;4952217;29;20031;-61
2022/03/15 04:19:53;;;;;;;25.55;12.75;;;;;;;;;;4952320;28;20038;-61
2022/03/15 04:22:20;;;;;;;26.35;12.75;;;;;;;;;;4952301;29;20427;-60
2022/03/15 04:24:46;;;;;;;33.85;13.75;;;;;;;;;;4952191;29;20042;-62
2022/03/15 04:27:12;;;;;;;27.90;13.35;;;;;;;;;;4952301;29;20114;-60
2022/03/15 04:29:38;;;;;;;28.05;13.27;;;;;;;;;;4952202;29;20035;-62
2022/03/15 04:32:04;;;;;;;25.10;13.13;;;;;;;;;;4952006;29;20038;-61
2022/03/15 04:34:31;;;;;;;29.20;14.38;;;;;;;;;;4951949;29;20456;-60
2022/03/15 04:36:57;;;;;;;26.95;14.23;;;;;;;;;;4951922;29;20028;-62
2022/03/15 04:39:24;;;;;;;30.17;15.10;;;;;;;;;;4952128;29;20043;-62
2022/03/15 04:41:50;;;;;;;31.77;15.75;;;;;;;;;;4952041;29;20110;-59
2022/03/15 04:44:16;;;;;;;31.15;15.27;;;;;;;;;;4952197;29;20027;-61
2022/03/15 04:46:42;;;;;;;30.88;15.43;;;;;;;;;;4951789;29;20024;-62
2022/03/15 04:49:08;;;;;;;32.13;15.93;;;;;;;;;;4951946;29;20027;-61
2022/03/15 04:51:35;;;;;;;30.70;16.02;;;;;;;;;;4951806;29;20555;-61
2022/03/15 04:54:01;;;;;;;33.88;16.48;;;;;;;;;;4951415;29;20035;-60
2022/03/15 04:56:27;;;;;;;34.55;16.98;;;;;;;;;;4951935;29;20027;-62
2022/03/15 04:58:53;;;;;;;28.33;16.33;;;;;;;;;;4951946;29;20070;-60
2022/03/15 05:01:19;;;;;;;28.50;15.45;;;;;;;;;;4951540;29;20497;-61
2022/03/15 05:03:45;;;;;;;33.40;15.82;;;;;;;;;;4951697;29;20063;-61
2022/03/15 05:06:11;;;;;;;32.42;15.82;;;;;;;;;;4951656;29;20073;-62
2022/03/15 05:08:38;;;;;;;31.48;16.55;;;;;;;;;;4951454;29;20135;-62
2022/03/15 05:11:07;;;;;;;28.58;15.40;;;;;;;;;;4951754;29;20039;-61
2022/03/15 05:13:46;;;;;;;36.42;16.98;;;;;;;;;;4951758;29;20110;-62
2022/03/15 05:16:15;;;;;;;39.03;18.85;;;;;;;;;;4951787;29;20032;-62
2022/03/15 05:18:41;;;;;;;33.92;18.13;;;;;;;;;;4951464;29;20027;-62
2022/03/15 05:21:14;;;;;;;38.08;17.67;;;;;;;;;;4951912;29;20566;-60
2022/03/15 05:23:40;;;;;;;34.70;17.17;;;;;;;;;;4951691;29;20027;-61
2022/03/15 05:26:06;;;;;;;37.92;19.15;;;;;;;;;;4951576;29;20031;-60
2022/03/15 05:28:32;;;;;;;36.92;17.90;;;;;;;;;;4951457;29;20031;-60
2022/03/15 05:30:58;;;;;;;33.30;17.75;;;;;;;;;;4951643;29;20538;-61
2022/03/15 05:33:24;;;;;;;35.80;17.55;;;;;;;;;;4953282;28;20047;-61
2022/03/15 05:35:50;;;;;;;33.75;16.85;;;;;;;;;;4955198;29;20027;-61
2022/03/15 05:38:17;;;;;;;31.75;16.25;;;;;;;;;;4921788;29;20419;-61
2022/03/15 05:40:43;;;;;;;36.28;17.92;;;;;;;;;;4937981;29;20447;-61
2022/03/15 05:43:09;;;;;;;41.70;19.33;;;;;;;;;;4954795;29;20395;-61
2022/03/15 05:45:35;;;;;;;39.80;21.02;;;;;;;;;;4955010;29;20031;-61
2022/03/15 05:48:01;;;;;;;39.80;19.80;;;;;;;;;;4954980;29;20099;-60
2022/03/15 05:50:28;;;;;;;45.60;21.27;;;;;;;;;;4954914;29;20043;-61
2022/03/15 05:52:54;;;;;;;44.40;22.90;;;;;;;;;;4954885;29;20391;-62
2022/03/15 05:55:21;;;;;;;39.92;21.23;;;;;;;;;;4954585;29;20035;-60
2022/03/15 05:57:47;;;;;;;40.17;21.50;;;;;;;;;;4954711;29;20029;-61
2022/03/15 06:00:13;;;;;;;39.72;20.17;;;;;;;;;;4954520;29;20034;-62
2022/03/15 06:02:40;;;;;;;38.45;19.83;;;;;;;;;;4954567;29;20099;-61
2022/03/15 06:05:06;;;;;;;39.90;19.98;;;;;;;;;;4954387;29;20035;-62
2022/03/15 06:07:33;;;;;;;44.17;21.08;;;;;;;;;;4953947;29;20066;-61
2022/03/15 06:09:59;;;;;;;47.90;20.52;;;;;;;;;;4954016;29;20051;-61
2022/03/15 06:12:25;;;;;;;38.63;20.05;;;;;;;;;;4954213;29;20042;-61
2022/03/15 06:14:52;;;;;;;45.58;20.25;;;;;;;;;;4954244;29;20082;-62
2022/03/15 06:17:18;;;;;;;42.67;19.85;;;;;;;;;;4954003;29;20047;-62
2022/03/15 06:19:45;;;;;;;49.30;20.05;;;;;;;;;;4953932;29;20487;-61
2022/03/15 06:22:11;;;;;;;46.97;20.10;;;;;;;;;;4953724;29;20031;-61
2022/03/15 06:24:37;;;;;;;44.08;20.40;;;;;;;;;;4957974;28;20031;-61
2022/03/15 06:27:03;;;;;;;43.92;21.63;;;;;;;;;;4980670;28;20498;-60
2022/03/15 06:29:30;;;;;;;43.92;19.48;;;;;;;;;;4981989;28;20109;-61
2022/03/15 06:31:56;;;;;;;43.10;20.60;;;;;;;;;;4984796;28;20147;-61
2022/03/15 06:34:23;;;;;;;42.17;19.55;;;;;;;;;;4992286;28;20545;-59
2022/03/15 06:36:49;;;;;;;43.40;20.02;;;;;;;;;;4992703;28;20025;-61
2022/03/15 06:39:15;;;;;;;39.45;18.77;;;;;;;;;;4992123;28;20486;-60
2022/03/15 06:41:43;;;;;;;39.78;19.33;;;;;;;;;;4992374;28;20030;-63
2022/03/15 06:44:09;;;;;;;39.90;18.13;;;;;;;;;;4991811;28;20041;-69
2022/03/15 06:46:36;;;;;;;40.60;18.10;;;;;;;;;;4992576;28;20045;-62
2022/03/15 06:49:03;;;;;;;36.05;17.77;;;;;;;;;;4992068;28;20105;-61
2022/03/15 06:51:29;;;;;;;45.25;20.70;;;;;;;;;;4989165;28;20030;-61
2022/03/15 06:53:55;;;;;;;42.78;20.30;;;;;;;;;;4992043;28;20042;-62
2022/03/15 06:56:21;;;;;;;41.80;19.92;;;;;;;;;;4992203;28;20034;-60
2022/03/15 06:58:47;;;;;;;43.97;21.13;;;;;;;;;;4992063;28;20414;-60
2022/03/15 07:01:13;;;;;;;54.20;22.92;;;;;;;;;;4990506;28;20121;-60
2022/03/15 07:03:39;;;;;;;52.72;24.02;;;;;;;;;;4992228;28;20026;-61
2022/03/15 07:06:06;;;;;;;58.70;28.58;;;;;;;;;;4992379;28;20026;-59
2022/03/15 07:08:32;;;;;;;67.68;31.50;;;;;;;;;;4991367;28;20058;-60
2022/03/15 07:10:58;;;;;;;62.75;29.63;;;;;;;;;;4991633;28;20150;-61
2022/03/15 07:13:24;;;;;;;56.22;26.80;;;;;;;;;;4991287;28;20037;-59
2022/03/15 07:15:50;;;;;;;64.85;28.15;;;;;;;;;;4991491;28;20030;-60
2022/03/15 07:18:18;;;;;;;57.63;27.98;;;;;;;;;;4991554;28;20089;-61
2022/03/15 07:20:44;;;;;;;51.28;25.25;;;;;;;;;;4991698;28;20029;-59
2022/03/15 07:23:10;;;;;;;52.47;25.42;;;;;;;;;;4991637;28;20026;-61
2022/03/15 07:25:36;;;;;;;50.05;25.23;;;;;;;;;;4991661;28;20034;-60
2022/03/15 07:28:02;;;;;;;49.03;24.52;;;;;;;;;;4991725;28;20030;-61
2022/03/15 07:30:28;;;;;;;44.42;22.40;;;;;;;;;;4991662;28;20730;-60
2022/03/15 07:32:55;;;;;;;49.75;23.58;;;;;;;;;;4991460;28;20058;-62
2022/03/15 07:35:22;;;;;;;50.55;23.80;;;;;;;;;;4991383;28;20042;-61
2022/03/15 07:37:53;;;;;;;44.92;23.15;;;;;;;;;;4991307;28;20081;-62
2022/03/15 07:40:19;;;;;;;50.03;24.98;;;;;;;;;;4991732;28;20026;-62
2022/03/15 07:42:46;;;;;;;59.50;27.13;;;;;;;;;;4991278;28;20061;-61
2022/03/15 07:45:12;;;;;;;56.63;28.92;;;;;;;;;;4991326;28;20049;-62
2022/03/15 07:47:38;;;;;;;61.25;29.42;;;;;;;;;;4991591;28;20414;-61
2022/03/15 07:50:05;;;;;;;60.28;30.17;;;;;;;;;;4991053;28;20026;-64
2022/03/15 07:52:31;;;;;;;61.42;30.23;;;;;;;;;;4991494;28;20037;-63
2022/03/15 07:54:57;;;;;;;69.43;31.42;;;;;;;;;;4990716;28;20035;-64
2022/03/15 07:57:25;;;;;;;62.53;31.35;;;;;;;;;;4991001;28;20590;-66
2022/03/15 07:59:51;;;;;;;61.55;30.30;;;;;;;;;;4990820;28;20110;-67
2022/03/15 08:02:17;;;;;;;56.42;28.13;;;;;;;;;;4991063;28;20026;-65
2022/03/15 08:04:43;;;;;;;49.20;23.27;;;;;;;;;;4990719;28;20050;-64
2022/03/15 08:07:10;;;;;;;45.22;21.90;;;;;;;;;;4990602;28;20030;-63
2022/03/15 08:09:37;;;;;;;41.35;21.60;;;;;;;;;;4990975;28;20117;-63
2022/03/15 08:12:04;;;;;;;39.08;20.00;;;;;;;;;;4991008;28;20034;-62
2022/03/15 08:14:30;;;;;;;43.90;20.77;;;;;;;;;;4990788;28;20042;-62
2022/03/15 08:16:57;;;;;;;39.17;20.50;;;;;;;;;;4990857;28;20486;-63
2022/03/15 08:19:23;;;;;;;39.08;21.20;;;;;;;;;;4991042;28;20038;-62
2022/03/15 08:21:49;;;;;;;42.33;21.65;;;;;;;;;;4990678;28;20018;-62
2022/03/15 08:24:17;;;;;;;37.85;18.85;;;;;;;;;;4990657;28;20061;-61
2022/03/15 08:26:43;;;;;;;29.63;15.82;;;;;;;;;;4990780;28;20029;-63
2022/03/15 08:29:10;;;;;;;26.90;14.50;;;;;;;;;;4990522;28;20027;-62
2022/03/15 08:31:36;;;;;;;29.38;15.60;;;;;;;;;;4990812;28;20048;-62
2022/03/15 08:34:02;;;;;;;20.92;10.52;;;;;;;;;;4990494;28;20479;-62
2022/03/15 08:36:28;;;;;;;16.08;8.70;;;;;;;;;;4990410;28;20430;-62
2022/03/15 08:38:54;;;;;;;17.70;9.15;;;;;;;;;;4990384;28;20038;-62
2022/03/15 08:41:20;;;;;;;18.95;9.35;;;;;;;;;;4990423;28;20031;-61
2022/03/15 08:43:47;;;;;;;20.88;12.25;;;;;;;;;;4990418;28;20023;-59
2022/03/15 08:46:13;;;;;;;17.90;9.43;;;;;;;;;;4989135;28;20115;-61
2022/03/15 08:48:39;;;;;;;17.45;10.57;;;;;;;;;;4990603;28;20061;-62
2022/03/15 08:51:05;;;;;;;16.77;8.65;;;;;;;;;;4990364;28;20088;-60
2022/03/15 08:53:35;;;;;;;21.73;9.82;;;;;;;;;;4990133;28;20390;-60
2022/03/15 08:56:02;;;;;;;15.25;8.30;;;;;;;;;;4990706;28;20042;-60
2022/03/15 08:58:28;;;;;;;14.95;8.57;;;;;;;;;;4989886;28;20470;-61
2022/03/15 09:00:54;;;;;;;14.35;7.50;;;;;;;;;;4990202;28;20030;-60
2022/03/15 09:03:22;;;;;;;15.38;6.75;;;;;;;;;;4990429;28;20149;-62
2022/03/15 09:05:48;;;;;;;14.75;7.50;;;;;;;;;;4990091;28;20470;-62
2022/03/15 09:08:14;;;;;;;14.13;8.18;;;;;;;;;;4992945;28;20442;-61
2022/03/15 09:10:42;;;;;;;17.70;9.52;;;;;;;;;;4993719;28;20031;-61
2022/03/15 09:13:09;;;;;;;18.58;9.10;;;;;;;;;;4994193;28;20541;-60
2022/03/15 09:15:35;;;;;;;12.15;6.57;;;;;;;;;;4993611;28;20038;-59
2022/03/15 09:18:02;;;;;;;18.05;8.45;;;;;;;;;;4993879;28;20173;-60
2022/03/15 09:20:28;;;;;;;19.38;9.52;;;;;;;;;;4993453;28;20045;-61
2022/03/15 09:22:54;;;;;;;27.25;14.35;;;;;;;;;;4993778;28;20496;-60
2022/03/15 09:25:20;;;;;;;27.73;14.63;;;;;;;;;;4993457;28;20033;-61
2022/03/15 09:27:47;;;;;;;35.17;14.55;;;;;;;;;;4993268;28;20038;-61
2022/03/15 09:30:13;;;;;;;24.80;13.02;;;;;;;;;;4993722;28;20048;-62
2022/03/15 09:32:39;;;;;;;25.63;13.55;;;;;;;;;;4993412;28;20040;-61
2022/03/15 09:35:06;;;;;;;26.17;13.90;;;;;;;;;;4993840;28;20406;-61
2022/03/15 09:37:32;;;;;;;23.00;12.25;;;;;;;;;;4993587;28;20042;-60
2022/03/15 09:39:58;;;;;;;22.50;11.90;;;;;;;;;;4993448;28;20089;-59
2022/03/15 09:42:26;;;;;;;20.15;11.73;;;;;;;;;;4993971;28;20022;-59
2022/03/15 09:44:52;;;;;;;24.65;11.40;;;;;;;;;;4992989;28;20022;-59
2022/03/15 09:47:23;;;;;;;20.30;11.07;;;;;;;;;;4993166;28;20351;-60
2022/03/15 09:49:52;;;;;;;23.60;11.68;;;;;;;;;;4993288;28;20390;-60
2022/03/15 09:52:19;;;;;;;20.70;11.68;;;;;;;;;;4993550;28;20018;-60
2022/03/15 09:54:46;;;;;;;21.80;11.63;;;;;;;;;;4993156;28;20052;-58
2022/03/15 09:57:12;;;;;;;22.88;11.75;;;;;;;;;;4993403;28;20410;-61
2022/03/15 09:59:38;;;;;;;19.15;10.85;;;;;;;;;;4992906;28;20837;-61
2022/03/15 10:02:04;;;;;;;31.80;16.80;;;;;;;;;;4992664;28;20041;-61
2022/03/15 10:04:31;;;;;;;23.83;12.27;;;;;;;;;;4993243;28;20470;-59
2022/03/15 10:06:57;;;;;;;20.17;10.20;;;;;;;;;;4992926;28;20030;-60
2022/03/15 10:09:24;;;;;;;15.57;8.98;;;;;;;;;;4992419;28;20046;-61
2022/03/15 10:11:51;;;;;;;15.98;9.57;;;;;;;;;;4992596;28;20109;-60
2022/03/15 10:14:19;;;;;;;18.70;10.57;;;;;;;;;;4992900;28;20436;-61
2022/03/15 10:16:45;;;;;;;22.20;11.15;;;;;;;;;;4992339;28;20038;-62
2022/03/15 10:19:12;;;;;;;27.88;12.40;;;;;;;;;;4991959;28;20584;-62
2022/03/15 10:21:39;;;;;;;38.20;16.63;;;;;;;;;;4992948;28;20034;-62
2022/03/15 10:24:07;;;;;;;23.08;10.77;;;;;;;;;;4992611;28;20500;-62
2022/03/15 10:26:37;;;;;;;19.83;10.27;;;;;;;;;;4992004;28;20065;-60
2022/03/15 10:29:03;;;;;;;21.00;10.18;;;;;;;;;;4991653;28;20026;-62
2022/03/15 10:31:29;;;;;;;15.63;9.65;;;;;;;;;;4992429;28;20045;-61
2022/03/15 10:34:01;;;;;;;17.15;11.05;;;;;;;;;;4992663;28;20038;-61
2022/03/15 10:36:28;;;;;;;11.13;6.85;;;;;;;;;;4991470;28;20600;-59
2022/03/15 10:38:54;;;;;;;16.40;9.85;;;;;;;;;;4991331;28;20084;-60
2022/03/15 10:41:20;;;;;;;20.25;9.95;;;;;;;;;;4989992;28;20482;-60
2022/03/15 10:43:59;;;;;;;19.98;11.02;;;;;;;;;;4991729;28;20045;-61
2022/03/15 10:46:26;;;;;;;17.45;10.30;;;;;;;;;;4992158;28;20034;-62
2022/03/15 10:49:03;;;;;;;16.95;9.43;;;;;;;;;;4991697;28;20038;-62
2022/03/15 10:51:29;;;;;;;21.60;10.00;;;;;;;;;;4991794;28;20546;-60
2022/03/15 10:54:04;;;;;;;17.13;9.85;;;;;;;;;;4991981;28;20391;-60
2022/03/15 10:56:31;;;;;;;23.85;10.95;;;;;;;;;;4992440;28;20033;-63
2022/03/15 10:59:05;;;;;;;20.63;10.77;;;;;;;;;;4991782;28;20113;-63
2022/03/15 11:01:38;;;;;;;14.55;8.40;;;;;;;;;;4991630;28;20497;-63
2022/03/15 11:04:06;;;;;;;17.60;9.77;;;;;;;;;;4991943;28;20084;-60
2022/03/15 11:06:43;;;;;;;16.42;9.23;;;;;;;;;;4991643;28;20429;-59
2022/03/15 11:09:24;;;;;;;16.55;9.02;;;;;;;;;;4991434;28;20430;-61
2022/03/15 11:11:53;;;;;;;20.60;9.68;;;;;;;;;;4991474;28;20113;-62
2022/03/15 11:14:57;;;;;;;22.50;11.45;;;;;;;;;;4991863;28;20041;-62
2022/03/15 11:17:25;;;;;;;17.30;9.10;;;;;;;;;;4991677;28;20034;-62
2022/03/15 11:19:52;;;;;;;19.05;9.10;;;;;;;;;;4991536;28;20092;-61
2022/03/15 11:22:23;;;;;;;20.13;9.30;;;;;;;;;;4991080;28;20476;-61
2022/03/15 11:25:02;;;;;;;17.27;9.25;;;;;;;;;;4991450;28;20026;-63
2022/03/15 11:27:31;;;;;;;18.33;9.95;;;;;;;;;;4991595;28;20034;-62
2022/03/15 11:30:02;;;;;;;17.42;9.48;;;;;;;;;;4990430;28;20324;-62
2022/03/15 11:32:30;;;;;;;14.60;7.38;;;;;;;;;;4990755;28;20022;-62
2022/03/15 11:34:56;;;;;;;14.20;8.02;;;;;;;;;;4991075;28;20066;-62
2022/03/15 11:37:22;;;;;;;17.55;8.45;;;;;;;;;;4990644;28;20030;-59
2022/03/15 11:39:50;;;;;;;20.67;8.65;;;;;;;;;;4991073;28;20035;-62
